Time;durP1;ratioP1;P1;durP2;ratioP2;P2;SDS_P1;SDS_P2;PMS_P1;PMS_P2;Temp;Humidity;BMP_temperature;BMP_pressure;BME280_temperature;BME280_humidity;BME280_pressure;Samples;Min_cycle;Max_cycle;Signal;HPM_P1;HPM_P2
2022/07/22 00:00:34;;;;;;;5.37;3.20;;;;;;;24.60;96.91;101137.16;2081571;28;20204;-66
2022/07/22 00:01:35;;;;;;;6.07;3.33;;;;;;;24.55;96.74;101109.56;2082649;28;20256;-66
2022/07/22 00:02:35;;;;;;;10.07;4.00;;;;;;;24.50;100.00;101101.84;2074537;28;20197;-66
2022/07/22 00:03:36;;;;;;;9.77;3.93;;;;;;;24.70;100.00;101133.56;2080322;28;20193;-66
2022/07/22 00:04:36;;;;;;;13.97;4.00;;;;;;;24.41;100.00;101082.31;2081427;28;20205;-66
2022/07/22 00:05:37;;;;;;;7.43;3.70;;;;;;;24.61;100.00;101105.47;2081487;28;20217;-66
2022/07/22 00:06:37;;;;;;;8.27;3.60;;;;;;;24.71;100.00;101126.59;2081698;28;20224;-66
2022/07/22 00:07:38;;;;;;;8.50;3.63;;;;;;;24.72;100.00;101127.38;2080062;28;20185;-66
2022/07/22 00:08:39;;;;;;;7.90;3.60;;;;;;;24.71;100.00;101126.59;2074462;28;20204;-66
2022/07/22 00:09:39;;;;;;;9.17;3.87;;;;;;;24.71;100.00;101128.66;2082605;28;20205;-66
2022/07/22 00:10:40;;;;;;;9.33;4.17;;;;;;;24.73;100.00;101128.91;2081983;28;20189;-66
2022/07/22 00:11:41;;;;;;;6.60;3.20;;;;;;;24.57;100.00;101104.19;2081659;28;20181;-66
2022/07/22 00:12:41;;;;;;;8.27;3.57;;;;;;;24.61;100.00;101111.16;2082239;28;20251;-66
2022/07/22 00:13:42;;;;;;;6.60;3.30;;;;;;;24.74;100.00;101127.63;2081666;28;20284;-66
2022/07/22 00:14:43;;;;;;;6.20;3.40;;;;;;;24.72;100.00;101130.22;2078978;28;20763;-66
2022/07/22 00:15:44;;;;;;;6.60;3.43;;;;;;;24.73;100.00;101134.56;2074307;28;20872;-66
2022/07/22 00:16:44;;;;;;;7.43;3.57;;;;;;;23.97;100.00;101015.16;2074238;28;20605;-66
2022/07/22 00:17:45;;;;;;;8.47;3.23;;;;;;;24.67;100.00;101128.91;2073214;28;20189;-66
2022/07/22 00:18:45;;;;;;;7.93;3.53;;;;;;;24.66;100.00;101127.38;2079613;28;20200;-66
2022/07/22 00:19:46;;;;;;;7.23;3.47;;;;;;;24.71;100.00;101134.34;2077098;28;20196;-66
2022/07/22 00:20:47;;;;;;;9.07;3.67;;;;;;;24.55;100.00;101118.06;2077479;28;20543;-66
2022/07/22 00:21:47;;;;;;;10.43;3.77;;;;;;;24.28;100.00;101070.72;2082055;28;20268;-66
2022/07/22 00:22:48;;;;;;;6.40;3.47;;;;;;;24.60;100.00;101135.13;2080608;28;20185;-66
2022/07/22 00:23:48;;;;;;;5.93;3.47;;;;;;;24.63;100.00;101134.09;2073223;28;20709;-66
2022/07/22 00:24:49;;;;;;;7.60;3.40;;;;;;;24.11;100.00;101065.06;2081369;28;20300;-66
2022/07/22 00:25:49;;;;;;;6.23;3.30;;;;;;;24.58;100.00;101136.88;2076668;28;20213;-66
2022/07/22 00:26:50;;;;;;;6.20;3.73;;;;;;;24.49;100.00;101126.59;2081451;28;20238;-66
2022/07/22 00:27:50;;;;;;;6.47;3.13;;;;;;;24.29;100.00;101109.09;2077121;28;20197;-66
2022/07/22 00:28:51;;;;;;;7.70;3.57;;;;;;;24.53;100.00;101135.63;2077070;28;20185;-66
2022/07/22 00:29:51;;;;;;;6.90;2.93;;;;;;;23.58;100.00;101010.72;2079416;28;20189;-66
2022/07/22 00:30:52;;;;;;;5.33;3.27;;;;;;;24.49;100.00;101171.16;2073920;28;20177;-66
2022/07/22 00:31:52;;;;;;;8.50;3.50;;;;;;;23.99;100.00;101086.19;2074342;28;20209;-66
2022/07/22 00:32:53;;;;;;;4.83;3.40;;;;;;;24.49;100.00;101151.31;2074256;28;20208;-66
2022/07/22 00:33:53;;;;;;;5.13;3.03;;;;;;;24.49;100.00;101149.25;2073655;28;20189;-66
2022/07/22 00:34:54;;;;;;;5.97;3.30;;;;;;;24.50;100.00;101155.69;2078547;28;20208;-66
2022/07/22 00:35:54;;;;;;;5.63;3.33;;;;;;;24.45;100.00;101148.75;2084970;28;20192;-66
2022/07/22 00:36:55;;;;;;;6.93;3.17;;;;;;;24.46;100.00;101146.69;2081750;28;20189;-66
2022/07/22 00:37:55;;;;;;;8.47;3.10;;;;;;;24.42;100.00;101149.00;2082161;28;20552;-66
2022/07/22 00:38:56;;;;;;;6.50;3.30;;;;;;;24.46;100.00;101158.03;2081370;28;20662;-66
2022/07/22 00:39:57;;;;;;;7.13;3.50;;;;;;;23.91;100.00;101070.97;2081599;28;20207;-66
2022/07/22 00:40:57;;;;;;;7.20;3.53;;;;;;;24.43;100.00;101150.53;2080809;28;20189;-66
2022/07/22 00:41:59;;;;;;;5.33;3.40;;;;;;;24.35;100.00;101158.78;2081507;28;20315;-66
2022/07/22 00:43:00;;;;;;;8.10;3.10;;;;;;;24.41;100.00;101155.97;2077706;28;20201;-65
2022/07/22 00:44:06;;;;;;;6.30;3.57;;;;;;;24.37;100.00;101170.38;2073666;28;20197;-66
2022/07/22 00:45:07;;;;;;;5.47;3.00;;;;;;;23.57;100.00;101041.09;2075749;28;20291;-66
2022/07/22 00:46:08;;;;;;;8.30;3.47;;;;;;;23.82;100.00;101087.41;2081760;28;20181;-66
2022/07/22 00:47:09;;;;;;;6.23;3.10;;;;;;;24.29;100.00;101163.69;2081421;28;20189;-66
2022/07/22 00:48:09;;;;;;;6.13;3.27;;;;;;;24.24;100.00;101166.50;2074186;28;20170;-66
2022/07/22 00:49:10;;;;;;;7.37;3.30;;;;;;;24.24;100.00;101169.34;2073971;28;20197;-66
2022/07/22 00:50:11;;;;;;;6.63;3.67;;;;;;;24.24;100.00;101167.28;2080017;28;20187;-66
2022/07/22 00:51:12;;;;;;;7.03;3.43;;;;;;;24.07;100.00;101154.38;2076335;28;20254;-66
2022/07/22 00:52:12;;;;;;;8.43;3.90;;;;;;;24.20;100.00;101180.16;2077266;28;20204;-66
2022/07/22 00:53:13;;;;;;;7.77;3.60;;;;;;;24.17;100.00;101176.28;2081051;28;20247;-66
2022/07/22 00:54:14;;;;;;;13.77;3.93;;;;;;;24.14;100.00;101185.81;2081679;28;20331;-66
2022/07/22 00:55:14;;;;;;;6.30;3.50;;;;;;;24.14;100.00;101187.84;2080822;28;20218;-66
2022/07/22 00:56:16;;;;;;;8.77;3.70;;;;;;;24.13;100.00;101183.47;2081722;28;20188;-66
2022/07/22 00:57:16;;;;;;;9.90;3.97;;;;;;;24.14;100.00;101191.47;2073596;28;20247;-66
2022/07/22 00:58:17;;;;;;;8.00;3.80;;;;;;;24.12;100.00;101188.38;2073942;28;20304;-66
2022/07/22 00:59:18;;;;;;;7.67;3.47;;;;;;;24.12;100.00;101187.59;2073609;28;20204;-66
2022/07/22 01:00:21;;;;;;;8.10;3.83;;;;;;;24.12;100.00;101187.59;2073601;28;20200;-66
2022/07/22 01:01:22;;;;;;;8.27;3.73;;;;;;;24.13;100.00;101189.94;2073884;28;20189;-66
2022/07/22 01:02:22;;;;;;;8.37;4.10;;;;;;;24.13;100.00;101194.81;2076636;28;21198;-66
2022/07/22 01:03:23;;;;;;;6.80;3.93;;;;;;;24.20;100.00;101195.06;2074670;28;20537;-66
2022/07/22 01:04:23;;;;;;;10.57;3.93;;;;;;;24.21;100.00;101193.78;2081278;28;20185;-66
2022/07/22 01:05:24;;;;;;;5.63;3.83;;;;;;;24.21;100.00;101207.94;2081752;28;20196;-66
2022/07/22 01:06:24;;;;;;;7.73;3.77;;;;;;;24.20;100.00;101203.56;2081794;28;20283;-66
2022/07/22 01:07:25;;;;;;;10.10;3.93;;;;;;;24.24;100.00;101204.09;2081549;28;20283;-66
2022/07/22 01:08:26;;;;;;;8.83;4.10;;;;;;;24.25;100.00;101199.22;2081395;28;20188;-66
2022/07/22 01:09:26;;;;;;;6.57;3.53;;;;;;;24.27;100.00;101196.63;2080931;28;20200;-66
2022/07/22 01:10:27;;;;;;;7.93;4.47;;;;;;;24.08;100.00;101165.22;2081580;28;20233;-66
2022/07/22 01:11:27;;;;;;;7.33;3.70;;;;;;;24.29;100.00;101203.34;2080349;28;20180;-66
2022/07/22 01:12:28;;;;;;;8.63;3.70;;;;;;;24.29;100.00;101203.34;2073776;28;20258;-66
2022/07/22 01:13:28;;;;;;;7.23;3.83;;;;;;;24.36;100.00;101199.97;2081894;28;20176;-66
2022/07/22 01:14:29;;;;;;;7.30;3.60;;;;;;;24.33;100.00;101197.41;2081545;28;20196;-66
2022/07/22 01:15:30;;;;;;;6.37;3.93;;;;;;;24.33;100.00;101201.03;2080971;28;20266;-66
2022/07/22 01:16:31;;;;;;;8.00;4.30;;;;;;;23.26;100.00;101038.44;2081445;28;20678;-66
2022/07/22 01:17:32;;;;;;;8.80;3.73;;;;;;;24.33;100.00;101203.06;2081050;28;20177;-66
2022/07/22 01:18:32;;;;;;;7.50;3.47;;;;;;;24.37;100.00;101206.44;2081194;28;20205;-66
2022/07/22 01:19:35;;;;;;;7.00;3.80;;;;;;;24.31;100.00;101206.41;2080616;28;20674;-66
2022/07/22 01:20:36;;;;;;;6.50;3.37;;;;;;;24.24;100.00;101195.59;2073429;28;20193;-66
2022/07/22 01:21:37;;;;;;;8.03;3.73;;;;;;;24.21;100.00;101199.44;2073916;28;20190;-66
2022/07/22 01:22:37;;;;;;;5.37;3.40;;;;;;;24.18;100.00;101197.66;2080480;28;20181;-66
2022/07/22 01:23:39;;;;;;;10.60;3.93;;;;;;;24.15;100.00;101201.50;2080115;28;20698;-66
2022/07/22 01:24:39;;;;;;;20.10;6.00;;;;;;;24.08;100.00;101204.06;2080820;28;20228;-66
2022/07/22 01:25:40;;;;;;;14.43;5.17;;;;;;;24.03;100.00;101197.13;2073645;28;20201;-66
2022/07/22 01:26:40;;;;;;;19.17;6.17;;;;;;;24.02;100.00;101211.78;2081580;28;20661;-66
2022/07/22 01:27:41;;;;;;;12.30;4.87;;;;;;;23.98;100.00;101208.41;2081100;28;20308;-66
2022/07/22 01:28:41;;;;;;;9.33;4.50;;;;;;;23.94;100.00;101214.31;2082044;28;20659;-66
2022/07/22 01:29:42;;;;;;;8.63;3.83;;;;;;;23.95;100.00;101209.44;2074026;28;20644;-66
2022/07/22 01:30:43;;;;;;;6.67;3.63;;;;;;;23.91;100.00;101215.34;2073251;28;20201;-66
2022/07/22 01:31:43;;;;;;;6.80;4.10;;;;;;;23.87;100.00;101225.34;2078874;28;20464;-66
2022/07/22 01:32:44;;;;;;;8.90;3.90;;;;;;;23.82;100.00;101214.78;2077171;28;20220;-66
2022/07/22 01:33:44;;;;;;;11.90;4.63;;;;;;;23.79;100.00;101219.41;2073323;28;20204;-66
2022/07/22 01:34:45;;;;;;;9.33;4.03;;;;;;;23.76;100.00;101214.78;2073215;28;20186;-66
2022/07/22 01:35:46;;;;;;;9.20;4.30;;;;;;;23.70;100.00;101222.44;2075965;28;20186;-66
2022/07/22 01:36:46;;;;;;;25.47;8.70;;;;;;;23.63;100.00;101220.09;2081961;28;20698;-66
2022/07/22 01:37:47;;;;;;;25.33;7.90;;;;;;;23.60;100.00;101212.63;2079789;28;20189;-66
2022/07/22 01:38:47;;;;;;;20.27;6.13;;;;;;;23.58;100.00;101215.19;2079512;28;20276;-66
2022/07/22 01:39:48;;;;;;;12.57;5.13;;;;;;;23.48;100.00;101205.38;2081579;28;20677;-66
2022/07/22 01:40:49;;;;;;;12.80;4.37;;;;;;;23.50;100.00;101216.19;2081473;28;20635;-66
2022/07/22 01:41:50;;;;;;;7.90;4.33;;;;;;;23.46;100.00;101215.66;2077844;28;20297;-66
2022/07/22 01:42:50;;;;;;;6.37;4.13;;;;;;;23.41;100.00;101214.34;2075784;28;20184;-66
2022/07/22 01:43:51;;;;;;;7.83;3.97;;;;;;;22.45;100.00;101067.81;2081186;28;20636;-66
2022/07/22 01:44:51;;;;;;;7.80;3.77;;;;;;;23.36;100.00;101234.13;2081368;28;20665;-66
2022/07/22 01:45:53;;;;;;;8.37;4.00;;;;;;;23.35;100.00;101218.44;2073843;28;20181;-66
2022/07/22 01:46:53;;;;;;;8.13;4.03;;;;;;;23.33;100.00;101218.94;2073034;28;20705;-66
2022/07/22 01:47:54;;;;;;;14.50;4.40;;;;;;;23.30;100.00;101227.66;2078832;28;20650;-66
2022/07/22 01:48:55;;;;;;;11.63;4.37;;;;;;;23.28;100.00;101225.34;2080219;28;20201;-66
2022/07/22 01:49:56;;;;;;;6.83;3.90;;;;;;;23.28;100.00;101225.34;2076134;28;20260;-66
2022/07/22 01:50:56;;;;;;;10.33;4.77;;;;;;;23.26;100.00;101224.28;2080750;28;20272;-66
2022/07/22 01:51:57;;;;;;;8.33;4.27;;;;;;;23.25;100.00;101226.38;2081318;28;20177;-66
2022/07/22 01:52:57;;;;;;;10.00;4.30;;;;;;;23.23;100.00;101237.38;2081820;28;20663;-66
2022/07/22 01:53:58;;;;;;;7.03;3.80;;;;;;;23.22;100.00;101235.06;2073196;28;20193;-66
2022/07/22 01:54:58;;;;;;;6.73;3.77;;;;;;;23.16;100.00;101231.41;2078661;28;20224;-66
2022/07/22 01:55:59;;;;;;;5.57;4.10;;;;;;;23.13;100.00;101227.53;2076333;28;20328;-66
2022/07/22 01:56:59;;;;;;;8.20;4.00;;;;;;;22.64;100.00;101174.28;2076934;28;20221;-66
2022/07/22 01:58:00;;;;;;;7.70;3.80;;;;;;;23.07;100.00;101238.03;2080693;28;20224;-66
2022/07/22 01:59:00;;;;;;;9.63;4.13;;;;;;;22.89;100.00;101210.16;2080756;28;20177;-66
2022/07/22 02:00:01;;;;;;;6.30;3.90;;;;;;;22.82;100.00;101204.97;2081780;28;20246;-66
2022/07/22 02:01:01;;;;;;;7.23;3.83;;;;;;;22.75;100.00;101199.78;2073771;28;20568;-66
2022/07/22 02:02:02;;;;;;;6.47;3.70;;;;;;;22.81;100.00;101209.06;2076674;28;20264;-66
2022/07/22 02:03:03;;;;;;;8.70;3.90;;;;;;;23.02;100.00;101240.84;2076050;28;20216;-66
2022/07/22 02:04:03;;;;;;;6.60;4.10;;;;;;;22.25;100.00;101130.78;2076181;28;20193;-66
2022/07/22 02:05:07;;;;;;;8.07;3.67;;;;;;;22.92;100.00;101253.59;2077933;28;20581;-65
2022/07/22 02:06:08;;;;;;;7.00;3.80;;;;;;;22.88;100.00;101251.00;2073103;28;20264;-66
2022/07/22 02:07:08;;;;;;;6.83;3.90;;;;;;;22.84;100.00;101246.84;2073177;28;20182;-66
2022/07/22 02:08:10;;;;;;;10.90;4.77;;;;;;;22.76;100.00;101243.72;2073624;28;20180;-66
2022/07/22 02:09:10;;;;;;;7.87;3.80;;;;;;;21.79;100.00;101103.91;2080341;28;20694;-66
2022/07/22 02:10:11;;;;;;;6.53;3.73;;;;;;;22.05;100.00;101144.97;2075342;28;20264;-66
2022/07/22 02:11:12;;;;;;;11.10;3.77;;;;;;;22.57;100.00;101227.63;2077250;28;20196;-66
2022/07/22 02:12:12;;;;;;;8.80;3.97;;;;;;;22.69;100.00;101249.03;2080834;28;20189;-66
2022/07/22 02:13:13;;;;;;;10.17;4.70;;;;;;;22.67;100.00;101241.06;2080955;28;20177;-66
2022/07/22 02:14:13;;;;;;;10.10;4.53;;;;;;;22.66;100.00;101250.03;2080853;28;20624;-66
2022/07/22 02:15:14;;;;;;;13.37;4.40;;;;;;;22.66;100.00;101244.38;2080826;28;20204;-66
2022/07/22 02:16:14;;;;;;;10.37;4.20;;;;;;;22.60;100.00;101252.03;2074724;28;20535;-66
2022/07/22 02:17:15;;;;;;;12.33;4.70;;;;;;;22.63;100.00;101245.41;2078261;28;20242;-66
2022/07/22 02:18:18;;;;;;;14.63;5.07;;;;;;;22.60;100.00;101241.53;2076876;28;20217;-66
2022/07/22 02:19:18;;;;;;;18.37;4.23;;;;;;;22.60;100.00;101250.00;2072949;28;20276;-66
2022/07/22 02:20:19;;;;;;;13.23;4.80;;;;;;;22.06;100.00;101160.63;2072901;28;20185;-66
2022/07/22 02:21:20;;;;;;;14.03;4.60;;;;;;;22.61;100.00;101248.72;2073151;28;20610;-66
2022/07/22 02:22:20;;;;;;;12.93;4.20;;;;;;;22.53;100.00;101246.84;2081708;28;20184;-66
2022/07/22 02:23:21;;;;;;;16.37;4.43;;;;;;;22.56;100.00;101252.25;2081150;28;20241;-66
2022/07/22 02:24:21;;;;;;;10.03;4.27;;;;;;;21.59;100.00;101112.41;2080571;28;20572;-66
2022/07/22 02:25:22;;;;;;;9.57;3.90;;;;;;;22.56;100.00;101245.84;2080564;28;20188;-66
2022/07/22 02:26:22;;;;;;;8.00;4.23;;;;;;;22.52;100.00;101240.41;2080813;28;20220;-66
2022/07/22 02:27:23;;;;;;;10.60;4.50;;;;;;;22.56;100.00;101254.34;2077841;28;20243;-66
2022/07/22 02:28:23;;;;;;;8.63;4.50;;;;;;;22.54;100.00;101251.22;2074230;28;20177;-66
2022/07/22 02:29:24;;;;;;;5.70;3.53;;;;;;;22.56;100.00;101257.16;2080920;28;20319;-66
2022/07/22 02:30:24;;;;;;;12.80;4.20;;;;;;;21.87;100.00;101155.81;2081615;28;20200;-66
2022/07/22 02:31:25;;;;;;;7.43;3.83;;;;;;;22.64;100.00;101253.38;2081027;28;20189;-65
2022/07/22 02:32:25;;;;;;;11.47;4.27;;;;;;;22.66;100.00;101255.69;2080704;28;20277;-66
2022/07/22 02:34:45;;;;;;;6.27;3.47;;;;;;;22.69;100.00;101258.31;2081036;28;20675;-66
2022/07/22 02:35:45;;;;;;;8.17;4.20;;;;;;;22.72;100.00;101257.28;2080905;28;20857;-66
2022/07/22 02:36:46;;;;;;;10.37;4.07;;;;;;;22.63;100.00;101234.84;2081008;28;20192;-66
2022/07/22 02:37:46;;;;;;;12.27;4.60;;;;;;;22.76;100.00;101260.66;2079981;28;20204;-66
2022/07/22 02:38:47;;;;;;;11.13;4.40;;;;;;;21.69;100.00;101088.47;2080176;28;20244;-66
2022/07/22 02:39:47;;;;;;;12.83;4.83;;;;;;;22.78;100.00;101258.09;2080646;28;20284;-66
2022/07/22 02:40:48;;;;;;;10.03;4.30;;;;;;;22.72;100.00;101250.88;2073300;28;20182;-66
2022/07/22 02:41:48;;;;;;;11.53;5.00;;;;;;;21.96;100.00;101138.72;2079897;28;20284;-66
2022/07/22 02:42:49;;;;;;;11.77;4.40;;;;;;;22.78;100.00;101269.41;2080408;28;20188;-66
2022/07/22 02:43:53;;;;;;;10.73;4.00;;;;;;;22.80;100.00;101268.91;2076556;28;20328;-66
2022/07/22 02:44:54;;;;;;;8.37;4.40;;;;;;;22.81;100.00;101271.22;2072479;28;20221;-66
2022/07/22 02:45:54;;;;;;;11.97;5.00;;;;;;;22.82;100.00;101269.94;2072937;28;20482;-66
2022/07/22 02:46:54;;;;;;;11.53;5.00;;;;;;;22.83;100.00;101277.16;2072326;28;20181;-66
2022/07/22 02:47:55;;;;;;;11.87;4.63;;;;;;;22.84;100.00;101263.81;2073057;28;20174;-66
2022/07/22 02:48:57;;;;;;;15.10;5.10;;;;;;;22.19;100.00;101180.00;2080504;28;20743;-66
2022/07/22 02:49:57;;;;;;;8.97;3.90;;;;;;;22.81;100.00;101274.06;2079725;28;20572;-66
2022/07/22 02:50:58;;;;;;;6.57;4.17;;;;;;;22.62;100.00;101241.78;2080835;28;20478;-66
2022/07/22 02:51:59;;;;;;;7.80;4.20;;;;;;;22.77;100.00;101278.41;2081010;28;20216;-66
2022/07/22 02:52:59;;;;;;;6.30;3.70;;;;;;;21.84;100.00;101151.94;2080923;28;20189;-66
2022/07/22 02:54:00;;;;;;;8.13;3.90;;;;;;;21.70;100.00;101129.50;2080754;28;20189;-66
2022/07/22 02:55:00;;;;;;;6.80;3.60;;;;;;;22.67;100.00;101277.03;2080430;28;20177;-66
2022/07/22 02:56:00;;;;;;;7.47;3.53;;;;;;;22.67;100.00;101283.44;2081305;28;20243;-66
2022/07/22 02:57:01;;;;;;;7.83;3.80;;;;;;;22.70;100.00;101290.13;2081113;28;20192;-66
2022/07/22 02:58:09;;;;;;;6.83;3.70;;;;;;;22.68;100.00;101289.88;2073897;28;20660;-66
2022/07/22 02:59:09;;;;;;;5.13;3.27;;;;;;;22.62;100.00;101292.63;2072928;28;20192;-66
2022/07/22 03:00:12;;;;;;;7.53;3.63;;;;;;;22.59;100.00;101281.56;2078053;28;20493;-66
2022/07/22 03:01:13;;;;;;;7.03;3.90;;;;;;;21.60;100.00;101133.72;2080360;28;20271;-66
2022/07/22 03:02:13;;;;;;;9.63;4.90;;;;;;;22.50;100.00;101285.34;2080578;28;20444;-66
2022/07/22 03:03:14;;;;;;;6.20;3.87;;;;;;;22.48;100.00;101289.94;2080670;28;20189;-66
2022/07/22 03:04:14;;;;;;;6.17;3.97;;;;;;;22.47;100.00;101289.16;2080046;28;20181;-66
2022/07/22 03:05:15;;;;;;;6.50;3.97;;;;;;;22.48;100.00;101290.72;2072793;28;20178;-66
2022/07/22 03:06:15;;;;;;;7.97;4.07;;;;;;;22.40;100.00;101291.59;2072880;28;20190;-66
2022/07/22 03:07:16;;;;;;;8.60;4.10;;;;;;;22.46;100.00;101293.25;2078899;28;20181;-66
2022/07/22 03:08:17;;;;;;;9.37;4.10;;;;;;;22.43;100.00;101290.63;2081077;28;20192;-66
2022/07/22 03:09:17;;;;;;;7.87;3.70;;;;;;;22.40;100.00;101289.56;2076754;28;20197;-66
2022/07/22 03:10:18;;;;;;;9.60;3.80;;;;;;;22.38;100.00;101294.16;2075627;28;20220;-66
2022/07/22 03:11:18;;;;;;;7.63;3.87;;;;;;;22.33;100.00;101295.66;2079296;28;20190;-66
2022/07/22 03:12:19;;;;;;;8.53;4.47;;;;;;;22.31;100.00;101289.72;2073088;28;20656;-66
2022/07/22 03:13:19;;;;;;;9.07;4.47;;;;;;;22.19;100.00;101275.97;2080542;28;20212;-66
2022/07/22 03:14:21;;;;;;;7.97;4.40;;;;;;;22.31;100.00;101291.78;2080379;28;20196;-66
2022/07/22 03:15:22;;;;;;;9.20;4.13;;;;;;;22.32;100.00;101296.16;2075002;28;20201;-66
2022/07/22 03:16:22;;;;;;;9.40;5.33;;;;;;;22.31;100.00;101295.38;2076924;28;20435;-66
2022/07/22 03:17:23;;;;;;;15.97;5.00;;;;;;;21.84;100.00;101222.47;2080218;28;20192;-66
2022/07/22 03:18:23;;;;;;;14.80;4.80;;;;;;;22.30;100.00;101299.47;2078948;28;20205;-66
2022/07/22 03:19:24;;;;;;;11.80;4.30;;;;;;;22.30;100.00;101305.13;2073494;28;20240;-66
2022/07/22 03:20:24;;;;;;;11.20;5.30;;;;;;;22.28;100.00;101296.38;2081289;28;20185;-66
2022/07/22 03:21:25;;;;;;;11.80;4.53;;;;;;;22.29;100.00;101303.56;2080707;28;20293;-66
2022/07/22 03:22:25;;;;;;;11.17;4.70;;;;;;;22.28;100.00;101295.59;2073974;28;20198;-66
2022/07/22 03:23:26;;;;;;;11.90;5.37;;;;;;;22.19;100.00;101287.28;2077318;28;20196;-66
2022/07/22 03:24:26;;;;;;;10.47;4.63;;;;;;;22.31;100.00;101303.84;2080591;28;20203;-66
2022/07/22 03:25:27;;;;;;;11.60;4.87;;;;;;;22.07;100.00;101263.03;2080400;28;20189;-66
2022/07/22 03:26:27;;;;;;;10.27;4.27;;;;;;;22.32;100.00;101302.56;2078914;28;20219;-66
2022/07/22 03:27:28;;;;;;;10.93;4.93;;;;;;;22.30;100.00;101307.94;2072486;28;20630;-66
2022/07/22 03:28:29;;;;;;;11.77;5.07;;;;;;;22.25;100.00;101300.19;2081312;28;20681;-66
2022/07/22 03:29:29;;;;;;;10.03;4.80;;;;;;;22.32;100.00;101310.28;2080193;28;20476;-66
2022/07/22 03:30:30;;;;;;;10.97;5.20;;;;;;;22.30;100.00;101310.78;2074791;28;20197;-66
2022/07/22 03:31:30;;;;;;;13.10;5.57;;;;;;;22.30;100.00;101312.81;2077676;28;20220;-66
2022/07/22 03:32:31;;;;;;;10.50;5.53;;;;;;;22.32;100.00;101315.94;2078342;28;20581;-66
2022/07/22 03:33:31;;;;;;;12.77;5.40;;;;;;;22.38;100.00;101320.38;2074069;28;20199;-66
2022/07/22 03:34:32;;;;;;;14.40;6.13;;;;;;;22.33;100.00;101321.09;2074056;28;20186;-66
2022/07/22 03:35:32;;;;;;;9.43;5.07;;;;;;;22.32;100.00;101318.75;2075096;28;20182;-66
2022/07/22 03:36:33;;;;;;;9.87;5.03;;;;;;;22.25;100.00;101310.69;2074659;28;20205;-66
2022/07/22 03:37:33;;;;;;;13.40;4.90;;;;;;;22.28;100.00;101323.81;2073834;28;20588;-66
2022/07/22 03:38:34;;;;;;;9.10;4.70;;;;;;;22.28;100.00;101312.53;2079432;28;20227;-66
2022/07/22 03:39:35;;;;;;;10.13;4.80;;;;;;;22.26;100.00;101306.63;2078395;28;20702;-66
2022/07/22 03:40:36;;;;;;;10.90;5.00;;;;;;;22.37;100.00;101321.63;2078203;28;20512;-66
2022/07/22 03:41:36;;;;;;;15.20;4.97;;;;;;;22.39;100.00;101323.94;2082535;28;20568;-66
2022/07/22 03:42:37;;;;;;;9.67;4.90;;;;;;;22.35;100.00;101324.16;2081781;28;20205;-66
2022/07/22 03:43:37;;;;;;;9.73;4.47;;;;;;;22.38;100.00;101328.84;2082655;28;20208;-66
2022/07/22 03:44:38;;;;;;;10.57;4.93;;;;;;;22.43;100.00;101325.31;2082319;28;20206;-66
2022/07/22 03:45:38;;;;;;;11.43;5.10;;;;;;;22.43;100.00;101330.16;2081950;28;20674;-66
2022/07/22 03:46:38;;;;;;;8.87;4.70;;;;;;;22.41;100.00;101324.25;2082544;28;20189;-66
2022/07/22 03:47:40;;;;;;;9.73;5.33;;;;;;;22.44;100.00;101331.72;2077650;28;20185;-66
2022/07/22 03:48:40;;;;;;;12.63;5.20;;;;;;;22.48;100.00;101329.47;2074602;28;20206;-66
2022/07/22 03:49:40;;;;;;;9.37;4.97;;;;;;;22.42;100.00;101323.72;2074779;28;20213;-66
2022/07/22 03:50:41;;;;;;;15.23;5.20;;;;;;;22.47;100.00;101333.56;2082731;28;20181;-66
2022/07/22 03:51:41;;;;;;;22.40;5.60;;;;;;;22.53;100.00;101334.41;2074598;28;20681;-66
2022/07/22 03:52:42;;;;;;;17.30;5.13;;;;;;;22.57;100.00;101338.56;2081174;28;20192;-66
2022/07/22 03:53:42;;;;;;;13.67;5.33;;;;;;;22.50;100.00;101315.63;2076147;28;20650;-66
2022/07/22 03:54:43;;;;;;;9.97;4.87;;;;;;;22.65;100.00;101336.84;2078304;28;20221;-66
2022/07/22 03:55:44;;;;;;;12.60;4.77;;;;;;;22.64;100.00;101332.47;2082224;28;20283;-66
2022/07/22 03:56:44;;;;;;;8.97;4.47;;;;;;;22.68;100.00;101341.50;2079197;28;20185;-66
2022/07/22 03:57:45;;;;;;;13.40;5.23;;;;;;;22.71;100.00;101337.69;2075083;28;20678;-66
2022/07/22 03:58:45;;;;;;;11.53;5.10;;;;;;;22.75;100.00;101346.72;2082673;28;20208;-66
2022/07/22 03:59:46;;;;;;;13.40;5.33;;;;;;;22.73;100.00;101335.13;2081870;28;20196;-66
2022/07/22 04:00:47;;;;;;;12.83;5.23;;;;;;;22.79;100.00;101335.19;2082271;28;20185;-66
2022/07/22 04:01:47;;;;;;;13.47;4.80;;;;;;;22.77;100.00;101332.09;2078006;28;20559;-66
2022/07/22 04:02:48;;;;;;;13.77;4.50;;;;;;;22.85;100.00;101347.31;2082385;28;20189;-66
2022/07/22 04:03:48;;;;;;;10.20;5.20;;;;;;;22.09;100.00;101220.94;2081551;28;20268;-66
2022/07/22 04:04:49;;;;;;;11.70;5.00;;;;;;;22.86;100.00;101346.81;2079866;28;20180;-66
2022/07/22 04:05:49;;;;;;;10.87;4.80;;;;;;;22.88;100.00;101346.31;2074139;28;20273;-66
2022/07/22 04:06:53;;;;;;;11.23;4.67;;;;;;;22.81;100.00;101347.53;2081927;28;20185;-66
2022/07/22 04:07:53;;;;;;;10.23;5.23;;;;;;;22.71;100.00;101322.75;2074510;28;20625;-66
2022/07/22 04:08:54;;;;;;;12.67;5.17;;;;;;;22.77;100.00;101330.03;2080481;28;20271;-66
2022/07/22 04:10:04;;;;;;;11.13;5.27;;;;;;;22.94;100.00;101345.09;2082291;28;20203;-66
2022/07/22 04:11:05;;;;;;;12.03;5.40;;;;;;;22.72;100.00;101310.97;2082236;28;20640;-66
2022/07/22 04:12:05;;;;;;;10.37;4.80;;;;;;;23.04;100.00;101343.66;2081579;28;20485;-66
2022/07/22 04:13:06;;;;;;;9.67;5.10;;;;;;;23.11;100.00;101348.06;2079425;28;20583;-66
2022/07/22 04:14:06;;;;;;;10.37;4.80;;;;;;;23.13;100.00;101340.63;2075761;28;20299;-66
2022/07/22 04:15:08;;;;;;;13.13;5.37;;;;;;;23.11;100.00;101345.22;2072817;28;20640;-66
2022/07/22 04:16:08;;;;;;;15.20;5.23;;;;;;;23.03;100.00;101321.53;2074507;28;20186;-66
2022/07/22 04:17:09;;;;;;;13.20;5.27;;;;;;;23.22;100.00;101348.94;2074135;28;20193;-66
2022/07/22 04:18:09;;;;;;;11.97;4.90;;;;;;;23.27;100.00;101353.88;2074292;28;20208;-66
2022/07/22 04:19:10;;;;;;;14.87;5.17;;;;;;;23.29;100.00;101350.56;2073527;28;20196;-66
2022/07/22 04:20:11;;;;;;;14.10;5.40;;;;;;;23.32;100.00;101353.16;2077042;28;20216;-66
2022/07/22 04:21:12;;;;;;;10.70;4.80;;;;;;;23.30;100.00;101352.09;2081459;28;20231;-66
2022/07/22 04:22:12;;;;;;;9.70;4.87;;;;;;;23.33;100.00;101363.19;2082257;28;20192;-65
2022/07/22 04:23:12;;;;;;;15.57;5.17;;;;;;;23.38;100.00;101365.28;2082451;28;20196;-66
2022/07/22 04:24:13;;;;;;;9.60;5.07;;;;;;;23.39;100.00;101358.34;2082200;28;20185;-66
2022/07/22 04:25:14;;;;;;;8.40;4.73;;;;;;;23.39;100.00;101354.75;2075357;28;20219;-66
2022/07/22 04:26:15;;;;;;;9.80;4.67;;;;;;;23.39;100.00;101360.41;2079505;28;20197;-66
2022/07/22 04:27:15;;;;;;;9.17;5.00;;;;;;;23.41;100.00;101355.78;2080523;28;20497;-66
2022/07/22 04:28:16;;;;;;;7.97;4.40;;;;;;;23.45;100.00;101356.34;2081197;28;20197;-66
2022/07/22 04:29:16;;;;;;;14.07;4.60;;;;;;;23.44;100.00;101359.66;2080892;28;20219;-66
2022/07/22 04:30:17;;;;;;;21.17;4.93;;;;;;;23.45;100.00;101359.16;2080793;28;20571;-66
2022/07/22 04:31:17;;;;;;;18.13;5.63;;;;;;;23.31;100.00;101345.94;2081882;28;20272;-66
2022/07/22 04:32:18;;;;;;;19.47;5.40;;;;;;;23.23;100.00;101330.69;2080584;28;20204;-66
2022/07/22 04:33:20;;;;;;;18.63;4.97;;;;;;;23.52;100.00;101361.53;2081503;28;20791;-66
2022/07/22 04:34:20;;;;;;;10.30;4.73;;;;;;;23.34;100.00;101333.59;2080569;28;20542;-66
2022/07/22 04:35:21;;;;;;;13.13;5.13;;;;;;;23.01;100.00;101282.44;2080145;28;20454;-66
2022/07/22 04:36:21;;;;;;;11.00;4.93;;;;;;;23.56;100.00;101364.91;2080179;28;20193;-66
2022/07/22 04:37:21;;;;;;;9.13;4.57;;;;;;;23.60;100.00;101364.66;2080529;28;20192;-66
2022/07/22 04:38:22;;;;;;;13.37;4.70;;;;;;;23.62;100.00;101365.69;2080183;28;20208;-66
2022/07/22 04:39:23;;;;;;;10.87;5.00;;;;;;;23.66;100.00;101371.91;2081774;28;20250;-66